Time;durP1;ratioP1;P1;durP2;ratioP2;P2;SDS_P1;SDS_P2;PMS_P1;PMS_P2;Temp;Humidity;BMP_temperature;BMP_pressure;BME280_temperature;BME280_humidity;BME280_pressure;Samples;Min_cycle;Max_cycle;Signal;HPM_P1;HPM_P2
2022/12/08 00:00:11;;;;;;;6.97;2.85;;;1.70;99.90;;;;;;5097107;28;20118;-79
2022/12/08 00:02:37;;;;;;;6.53;3.25;;;1.70;99.90;;;;;;5096950;28;20053;-80
2022/12/08 00:10:31;;;;;;;7.38;2.85;;;1.80;99.90;;;;;;5097008;28;20052;-78
2022/12/08 00:12:56;;;;;;;3.72;2.70;;;1.80;99.90;;;;;;5096717;28;20106;-79
2022/12/08 00:15:22;;;;;;;6.20;2.55;;;1.90;99.90;;;;;;5096771;28;20044;-78
2022/12/08 00:17:48;;;;;;;5.50;2.78;;;1.90;99.90;;;;;;5096726;28;20047;-78
2022/12/08 00:20:13;;;;;;;4.32;2.85;;;2.00;99.90;;;;;;5096600;28;20040;-78
2022/12/08 00:22:39;;;;;;;9.40;2.80;;;2.00;99.90;;;;;;5096774;28;20468;-78
2022/12/08 00:25:05;;;;;;;7.72;2.83;;;2.00;99.90;;;;;;5096449;28;20384;-78
2022/12/08 00:27:30;;;;;;;8.83;2.50;;;2.10;99.90;;;;;;5096353;28;20391;-78
2022/12/08 00:29:56;;;;;;;3.78;2.00;;;2.10;99.90;;;;;;5096537;28;20131;-77
2022/12/08 00:32:22;;;;;;;6.80;3.30;;;2.10;99.90;;;;;;5096160;28;20093;-78
2022/12/08 00:34:47;;;;;;;2.47;2.03;;;2.10;99.90;;;;;;5096693;28;20052;-77
2022/12/08 00:37:13;;;;;;;7.00;2.88;;;2.00;99.90;;;;;;5096701;28;20072;-78
2022/12/08 00:39:39;;;;;;;3.47;2.83;;;2.00;99.90;;;;;;5096348;28;20067;-78
2022/12/08 00:42:10;;;;;;;2.50;2.15;;;2.00;99.90;;;;;;5096254;28;20079;-78
2022/12/08 00:44:36;;;;;;;5.30;2.85;;;1.90;99.90;;;;;;5096350;28;20438;-78
2022/12/08 00:47:02;;;;;;;4.30;2.60;;;1.90;99.90;;;;;;5096168;28;20044;-77
2022/12/08 00:49:27;;;;;;;6.38;2.40;;;1.90;99.90;;;;;;5096193;28;20036;-77
2022/12/08 00:51:53;;;;;;;4.18;2.63;;;1.90;99.90;;;;;;5096254;28;20177;-77
2022/12/08 00:54:19;;;;;;;6.28;2.55;;;1.90;99.90;;;;;;5094815;28;20063;-78
2022/12/08 00:56:45;;;;;;;3.37;2.17;;;1.80;99.90;;;;;;5095662;28;20547;-78
2022/12/08 00:59:11;;;;;;;5.30;2.67;;;1.80;99.90;;;;;;5095913;28;20415;-78
2022/12/08 01:01:36;;;;;;;2.83;2.50;;;1.80;99.90;;;;;;5095883;28;20075;-79
2022/12/08 01:04:04;;;;;;;4.75;2.60;;;1.80;99.90;;;;;;5111784;28;20066;-78
2022/12/08 01:06:30;;;;;;;3.75;2.90;;;1.80;99.90;;;;;;5095783;28;20052;-77
2022/12/08 01:08:55;;;;;;;6.97;3.03;;;1.80;99.90;;;;;;5095831;28;20048;-77
2022/12/08 01:11:21;;;;;;;5.78;2.90;;;1.80;99.90;;;;;;5095726;28;20044;-78
2022/12/08 01:13:47;;;;;;;4.55;2.88;;;1.70;99.90;;;;;;5095973;28;20079;-78
2022/12/08 01:16:24;;;;;;;4.55;3.30;;;1.70;99.90;;;;;;5095615;28;20051;-77
2022/12/08 01:18:50;;;;;;;4.20;3.08;;;1.70;99.90;;;;;;5096062;28;20426;-78
2022/12/08 01:21:16;;;;;;;3.42;2.90;;;1.70;99.90;;;;;;5095567;28;20040;-77
2022/12/08 01:23:42;;;;;;;5.43;3.10;;;1.60;99.90;;;;;;5095363;28;20487;-77
2022/12/08 01:26:10;;;;;;;7.60;3.58;;;1.60;99.90;;;;;;5095408;28;20102;-78
2022/12/08 01:28:36;;;;;;;9.50;3.35;;;1.60;99.90;;;;;;5094162;28;20066;-78
2022/12/08 01:31:02;;;;;;;6.90;3.33;;;1.60;99.90;;;;;;5095327;28;20044;-77
2022/12/08 01:33:28;;;;;;;5.03;3.03;;;1.60;99.90;;;;;;5095028;28;20396;-78
2022/12/08 01:35:54;;;;;;;3.33;3.03;;;1.50;99.90;;;;;;5097150;28;20040;-77
2022/12/08 01:38:21;;;;;;;7.57;3.33;;;1.50;99.90;;;;;;5095286;28;20036;-77
2022/12/08 01:40:46;;;;;;;6.13;3.60;;;1.50;99.90;;;;;;5095080;28;20426;-78
2022/12/08 01:43:17;;;;;;;4.78;2.95;;;1.50;99.90;;;;;;5095090;28;20119;-77
2022/12/08 01:45:43;;;;;;;4.22;3.55;;;1.50;99.90;;;;;;5095078;28;20105;-78
2022/12/08 01:48:18;;;;;;;4.75;3.50;;;1.60;99.90;;;;;;5095440;28;20055;-78
2022/12/08 01:50:45;;;;;;;9.45;3.90;;;1.40;99.90;;;;;;5095236;28;20044;-77
2022/12/08 01:53:16;;;;;;;6.78;3.90;;;1.40;99.90;;;;;;5094848;28;20114;-77
2022/12/08 01:55:48;;;;;;;6.13;3.65;;;1.40;99.90;;;;;;5094935;28;20047;-78
2022/12/08 01:58:24;;;;;;;5.30;3.97;;;1.40;99.90;;;;;;5094853;28;20051;-78
2022/12/08 02:00:50;;;;;;;6.75;4.10;;;1.40;99.90;;;;;;5095108;28;20043;-78
2022/12/08 02:03:27;;;;;;;9.13;4.32;;;1.40;99.90;;;;;;5094901;28;20051;-77
2022/12/08 02:05:52;;;;;;;7.00;4.32;;;1.40;99.90;;;;;;5094326;28;20070;-77
2022/12/08 02:08:18;;;;;;;7.18;4.03;;;1.40;99.90;;;;;;5094027;28;20496;-77
2022/12/08 02:10:46;;;;;;;8.15;4.80;;;1.40;99.90;;;;;;5093911;28;20040;-77
2022/12/08 02:13:15;;;;;;;6.97;4.00;;;1.40;99.90;;;;;;5094365;28;20480;-77
2022/12/08 02:16:02;;;;;;;6.32;4.20;;;1.50;99.90;;;;;;5094541;28;20079;-77
2022/12/08 02:18:49;;;;;;;8.45;4.20;;;1.50;99.90;;;;;;5094146;28;20494;-77
2022/12/08 02:21:49;;;;;;;8.40;4.40;;;1.50;99.90;;;;;;5094389;28;20051;-77
2022/12/08 02:24:39;;;;;;;5.00;4.22;;;1.50;99.90;;;;;;5093018;28;20126;-77
2022/12/08 02:27:37;;;;;;;7.03;4.57;;;1.60;99.90;;;;;;5093877;28;20051;-77
2022/12/08 02:30:05;;;;;;;6.65;4.25;;;1.60;99.90;;;;;;5059654;28;20364;-77
2022/12/08 02:32:49;;;;;;;5.22;4.25;;;1.60;99.90;;;;;;5094064;28;20510;-77
2022/12/08 02:35:24;;;;;;;10.80;4.60;;;1.70;99.90;;;;;;5094359;28;20083;-77
2022/12/08 02:38:02;;;;;;;8.55;4.72;;;1.70;99.90;;;;;;5096191;28;20052;-78
2022/12/08 02:41:04;;;;;;;7.93;4.93;;;1.80;99.90;;;;;;5093037;28;20055;-77
2022/12/08 02:44:02;;;;;;;8.98;4.55;;;1.90;99.90;;;;;;5094075;28;20136;-78
2022/12/08 02:46:32;;;;;;;7.47;4.57;;;1.90;99.90;;;;;;5083294;28;20143;-79
2022/12/08 02:48:59;;;;;;;10.38;4.95;;;1.90;99.90;;;;;;5094384;28;20040;-78
2022/12/08 02:51:25;;;;;;;7.78;4.80;;;2.00;99.90;;;;;;5094243;28;20087;-79
2022/12/08 02:53:51;;;;;;;7.45;4.28;;;2.00;99.90;;;;;;5094004;28;20502;-79
2022/12/08 02:56:39;;;;;;;11.20;4.95;;;2.00;99.90;;;;;;5093914;28;20080;-79
2022/12/08 02:59:20;;;;;;;9.88;5.20;;;2.00;99.90;;;;;;5093832;28;20043;-79
2022/12/08 03:02:23;;;;;;;7.28;4.57;;;2.10;99.90;;;;;;5093884;28;20044;-79
2022/12/08 03:04:57;;;;;;;9.10;4.85;;;2.10;99.90;;;;;;5093717;28;20052;-79
2022/12/08 03:07:34;;;;;;;7.75;4.88;;;2.20;99.90;;;;;;5093509;28;20507;-79
2022/12/08 03:10:10;;;;;;;10.20;5.13;;;2.10;99.90;;;;;;5093792;28;20051;-79
2022/12/08 03:12:47;;;;;;;6.45;4.80;;;2.20;99.90;;;;;;5093948;28;20483;-79
2022/12/08 03:15:17;;;;;;;9.27;5.03;;;2.20;99.90;;;;;;5093655;28;20101;-79
2022/12/08 03:17:46;;;;;;;8.57;4.82;;;2.20;99.90;;;;;;5096406;28;20050;-79
2022/12/08 03:20:16;;;;;;;6.93;4.82;;;2.20;99.90;;;;;;5097783;28;20094;-78
2022/12/08 03:22:44;;;;;;;8.00;4.97;;;2.20;99.90;;;;;;5097964;28;20048;-79
2022/12/08 03:25:13;;;;;;;7.72;5.15;;;2.20;99.90;;;;;;5097812;28;20058;-79
2022/12/08 03:27:39;;;;;;;11.80;4.68;;;2.30;99.90;;;;;;5095163;28;20506;-78
2022/12/08 03:30:06;;;;;;;8.20;5.23;;;2.30;99.90;;;;;;5096232;28;20122;-79
2022/12/08 03:32:37;;;;;;;6.78;4.78;;;2.30;99.90;;;;;;5096265;28;20048;-79
2022/12/08 03:35:08;;;;;;;10.73;5.35;;;2.30;99.90;;;;;;5096223;28;20084;-78
2022/12/08 03:37:35;;;;;;;7.40;5.00;;;2.40;99.90;;;;;;5097792;28;20039;-78
2022/12/08 03:40:02;;;;;;;9.02;5.28;;;2.40;99.90;;;;;;5096767;28;20044;-78
2022/12/08 03:42:28;;;;;;;8.25;4.90;;;2.40;99.90;;;;;;5096071;28;20059;-79
2022/12/08 03:44:53;;;;;;;8.15;5.05;;;2.40;99.90;;;;;;5096138;28;20040;-79
2022/12/08 03:47:19;;;;;;;7.88;5.15;;;2.40;99.90;;;;;;5096713;28;20056;-79
2022/12/08 03:49:45;;;;;;;9.38;4.97;;;2.50;99.90;;;;;;5096034;28;20048;-79
2022/12/08 03:52:10;;;;;;;6.45;5.00;;;2.50;99.90;;;;;;5095919;28;20040;-79
2022/12/08 03:54:36;;;;;;;8.90;4.93;;;2.50;99.90;;;;;;5096044;28;20048;-79
2022/12/08 03:57:01;;;;;;;9.25;5.53;;;2.50;99.90;;;;;;5095896;28;20044;-79
2022/12/08 03:59:27;;;;;;;8.63;5.32;;;2.60;99.90;;;;;;5095933;28;20369;-78
2022/12/08 04:01:53;;;;;;;9.65;5.38;;;2.60;99.90;;;;;;5095766;28;20040;-79
2022/12/08 04:04:18;;;;;;;15.82;5.32;;;2.60;99.90;;;;;;5095773;28;20048;-79
2022/12/08 04:06:44;;;;;;;8.93;5.35;;;2.60;99.90;;;;;;5095963;28;20048;-79
2022/12/08 04:09:09;;;;;;;11.75;5.68;;;2.60;99.90;;;;;;5095688;28;20051;-79
2022/12/08 04:11:35;;;;;;;10.10;6.03;;;2.60;99.90;;;;;;5095789;28;20069;-79
2022/12/08 04:14:01;;;;;;;6.57;4.88;;;2.60;99.90;;;;;;5095577;28;20044;-79
2022/12/08 04:16:27;;;;;;;7.72;5.47;;;2.60;99.90;;;;;;5095563;28;20499;-79
2022/12/08 04:18:53;;;;;;;10.27;5.27;;;2.70;99.90;;;;;;5095628;28;20511;-78
2022/12/08 04:21:18;;;;;;;8.70;5.78;;;2.70;99.90;;;;;;5095761;28;20278;-79
2022/12/08 04:23:44;;;;;;;8.23;5.30;;;2.70;99.90;;;;;;5094256;28;20080;-78
2022/12/08 04:26:10;;;;;;;9.05;6.10;;;2.70;99.90;;;;;;5058100;28;1064811;-79
2022/12/08 04:28:36;;;;;;;12.00;6.18;;;2.70;99.90;;;;;;5096207;28;20127;-79
2022/12/08 04:31:02;;;;;;;8.15;5.35;;;2.70;99.90;;;;;;5096595;28;20131;-79
2022/12/08 04:33:28;;;;;;;8.50;5.97;;;2.80;99.90;;;;;;5096443;28;20039;-79
2022/12/08 04:35:53;;;;;;;7.75;5.38;;;2.70;99.90;;;;;;5096396;28;20464;-79
2022/12/08 04:38:19;;;;;;;11.23;5.63;;;2.70;99.90;;;;;;5097673;28;20143;-79
2022/12/08 04:40:44;;;;;;;9.15;6.00;;;2.70;99.90;;;;;;5097499;28;20357;-79
2022/12/08 04:43:10;;;;;;;9.18;5.82;;;2.70;99.90;;;;;;5096175;28;20043;-79
2022/12/08 04:45:38;;;;;;;12.82;5.68;;;2.80;99.90;;;;;;5096318;28;20543;-79
2022/12/08 04:48:04;;;;;;;8.13;6.03;;;2.80;99.90;;;;;;5096206;28;20489;-79
2022/12/08 04:50:30;;;;;;;7.65;5.53;;;2.80;99.90;;;;;;5096150;28;20050;-79
2022/12/08 04:52:55;;;;;;;9.23;5.97;;;2.80;99.90;;;;;;5096171;28;20042;-79
2022/12/08 04:55:21;;;;;;;8.32;5.82;;;2.80;99.90;;;;;;5096074;28;20480;-79
2022/12/08 04:57:47;;;;;;;10.52;5.97;;;2.80;99.90;;;;;;5095974;28;20055;-79
2022/12/08 05:00:13;;;;;;;7.63;6.35;;;2.80;99.90;;;;;;5094839;28;20044;-79
2022/12/08 05:02:38;;;;;;;7.50;5.63;;;2.80;99.90;;;;;;5095028;28;20216;-78
2022/12/08 05:05:05;;;;;;;7.82;5.63;;;2.80;99.90;;;;;;5095007;28;20044;-79
2022/12/08 05:07:31;;;;;;;6.72;5.95;;;2.90;99.90;;;;;;5096014;28;20453;-79
2022/12/08 05:09:56;;;;;;;12.07;5.82;;;2.90;99.90;;;;;;5111960;28;20127;-79
2022/12/08 05:12:22;;;;;;;13.45;5.65;;;2.90;99.90;;;;;;5095717;28;20101;-79
2022/12/08 05:14:47;;;;;;;12.48;6.07;;;2.90;99.90;;;;;;5095699;28;20048;-79
2022/12/08 05:17:17;;;;;;;8.10;6.03;;;2.80;99.90;;;;;;5095689;28;20145;-79
2022/12/08 05:19:43;;;;;;;7.47;5.43;;;2.90;99.90;;;;;;5095575;28;20044;-79
2022/12/08 05:22:08;;;;;;;8.75;5.40;;;2.90;99.90;;;;;;5095172;28;20062;-79
2022/12/08 05:24:34;;;;;;;7.10;5.15;;;2.90;99.90;;;;;;5111591;28;20093;-79
2022/12/08 05:27:00;;;;;;;8.20;5.22;;;2.90;99.90;;;;;;5095374;28;20063;-79
2022/12/08 05:29:25;;;;;;;6.32;5.13;;;2.90;99.90;;;;;;5095472;28;20435;-79
2022/12/08 05:31:51;;;;;;;5.93;5.28;;;2.90;99.90;;;;;;5095714;28;20051;-79
2022/12/08 05:34:16;;;;;;;9.77;5.45;;;2.90;99.90;;;;;;5095640;28;20127;-79
2022/12/08 05:36:42;;;;;;;5.75;4.60;;;2.90;99.90;;;;;;5095092;28;20040;-79
2022/12/08 05:39:11;;;;;;;6.47;4.88;;;2.90;99.90;;;;;;5095051;28;20148;-79
2022/12/08 05:41:37;;;;;;;5.93;4.30;;;2.90;99.90;;;;;;5096417;28;20094;-87
2022/12/08 05:44:03;;;;;;;10.65;5.00;;;2.90;99.90;;;;;;5094979;28;20044;-78
2022/12/08 05:46:29;;;;;;;9.75;5.07;;;3.30;99.90;;;;;;5095500;28;20048;-78
2022/12/08 05:48:54;;;;;;;5.50;4.32;;;2.90;99.90;;;;;;5095037;28;20079;-79
2022/12/08 05:51:22;;;;;;;7.72;4.72;;;2.90;99.90;;;;;;5095322;28;20547;-80
2022/12/08 05:53:49;;;;;;;8.57;4.65;;;2.90;99.90;;;;;;5094808;28;20476;-78
2022/12/08 05:56:15;;;;;;;8.02;4.40;;;2.90;99.90;;;;;;5094675;28;20044;-76
2022/12/08 05:58:41;;;;;;;6.32;4.30;;;2.90;99.90;;;;;;5095378;28;20361;-77
2022/12/08 06:01:07;;;;;;;6.35;4.20;;;2.90;99.90;;;;;;5095184;28;20047;-78
2022/12/08 06:03:32;;;;;;;6.18;4.07;;;2.90;99.90;;;;;;5094549;28;20044;-78
2022/12/08 06:05:58;;;;;;;11.35;4.85;;;2.90;99.90;;;;;;5094665;28;20120;-77
2022/12/08 06:08:24;;;;;;;4.95;4.07;;;2.90;99.90;;;;;;5094641;28;20044;-77
2022/12/08 06:10:49;;;;;;;6.07;4.32;;;2.90;99.90;;;;;;5094576;28;20040;-77
2022/12/08 06:13:15;;;;;;;7.13;4.60;;;2.90;99.90;;;;;;5094757;28;20511;-77
2022/12/08 06:15:41;;;;;;;7.05;4.45;;;2.90;99.90;;;;;;5094498;28;20468;-77
2022/12/08 06:18:08;;;;;;;5.47;3.97;;;2.90;99.90;;;;;;5094665;28;20048;-77
2022/12/08 06:20:34;;;;;;;6.00;4.13;;;2.90;99.90;;;;;;5094549;28;20101;-77
2022/12/08 06:22:59;;;;;;;6.03;4.35;;;3.80;99.90;;;;;;5094404;28;20040;-77
2022/12/08 06:25:25;;;;;;;5.72;4.72;;;2.90;99.90;;;;;;5094472;28;20070;-76
2022/12/08 06:27:51;;;;;;;8.88;4.70;;;2.90;99.90;;;;;;5094963;28;20056;-76
2022/12/08 06:30:17;;;;;;;8.85;4.60;;;3.10;99.90;;;;;;5094243;28;20483;-77
2022/12/08 06:32:42;;;;;;;7.15;4.78;;;2.90;99.90;;;;;;5094231;28;20053;-77
2022/12/08 06:35:09;;;;;;;5.22;4.22;;;2.80;99.90;;;;;;5094223;28;20076;-77
2022/12/08 06:37:35;;;;;;;8.27;4.23;;;2.80;99.90;;;;;;5094182;28;20127;-78
2022/12/08 06:40:00;;;;;;;6.90;4.28;;;2.80;99.90;;;;;;5094235;28;20182;-77
2022/12/08 06:42:45;;;;;;;8.07;4.22;;;2.90;99.90;;;;;;5095045;28;20399;-77
2022/12/08 06:45:13;;;;;;;7.97;4.32;;;2.40;99.90;;;;;;5094017;28;20044;-77
2022/12/08 06:47:38;;;;;;;7.40;4.95;;;2.90;99.90;;;;;;5093990;28;20055;-79
2022/12/08 06:50:05;;;;;;;5.63;4.45;;;2.90;99.90;;;;;;5093895;28;20044;-77
2022/12/08 06:52:31;;;;;;;7.82;4.00;;;2.90;99.90;;;;;;5092543;28;20115;-76
2022/12/08 06:54:56;;;;;;;5.25;4.32;;;2.90;99.90;;;;;;5092720;28;20463;-77
2022/12/08 06:57:23;;;;;;;5.72;4.57;;;2.90;99.90;;;;;;5094156;28;20054;-76
2022/12/08 06:59:48;;;;;;;5.87;4.33;;;3.60;99.90;;;;;;5094154;28;20052;-77
2022/12/08 07:02:14;;;;;;;4.95;4.07;;;2.80;99.90;;;;;;5093552;28;20305;-77
2022/12/08 07:04:39;;;;;;;7.05;4.22;;;2.80;99.90;;;;;;5093469;28;20044;-77
2022/12/08 07:07:05;;;;;;;4.47;3.88;;;2.80;99.90;;;;;;5093900;28;20127;-76
2022/12/08 07:09:30;;;;;;;5.38;4.03;;;2.80;99.90;;;;;;5093620;28;20395;-78
2022/12/08 07:11:56;;;;;;;6.20;4.28;;;2.80;99.90;;;;;;5093758;28;20047;-78
2022/12/08 07:14:23;;;;;;;5.22;4.10;;;2.80;99.90;;;;;;5093750;28;20484;-78
2022/12/08 07:16:50;;;;;;;4.95;4.32;;;2.80;99.90;;;;;;5093767;28;20058;-78
2022/12/08 07:19:16;;;;;;;;;;;2.80;99.90;;;;;;5093935;28;20051;-77
2022/12/08 07:21:42;;;;;;;7.03;4.65;;;2.80;99.90;;;;;;5093392;28;19920;-75
2022/12/08 07:24:08;;;;;;;6.03;4.55;;;2.80;99.90;;;;;;5093709;28;20089;-77
2022/12/08 07:26:33;;;;;;;5.32;4.07;;;2.80;99.90;;;;;;5093574;28;20052;-75
2022/12/08 07:29:00;;;;;;;7.38;4.40;;;2.80;99.90;;;;;;5093561;28;20052;-75
2022/12/08 07:31:27;;;;;;;11.07;4.75;;;2.80;99.90;;;;;;5093472;28;20052;-81
2022/12/08 07:33:53;;;;;;;;;;;2.70;99.90;;;;;;5093927;28;20098;-76
2022/12/08 07:36:19;;;;;;;8.27;5.95;;;2.70;99.90;;;;;;5093461;28;19977;-76
2022/12/08 07:38:45;;;;;;;8.45;5.60;;;2.70;99.90;;;;;;5093359;28;20044;-78
2022/12/08 07:41:17;;;;;;;7.30;4.88;;;2.60;99.90;;;;;;5092722;28;20048;-76
2022/12/08 07:43:43;;;;;;;7.95;5.15;;;2.60;99.90;;;;;;5092384;28;20090;-78
2022/12/08 07:46:15;;;;;;;9.35;5.57;;;2.60;99.90;;;;;;5093321;28;20040;-75
2022/12/08 07:48:41;;;;;;;7.45;5.70;;;2.60;99.90;;;;;;5093316;28;20044;-77
2022/12/08 07:51:08;;;;;;;9.43;5.63;;;2.60;99.90;;;;;;5093242;28;20040;-81
2022/12/08 07:53:33;;;;;;;6.87;5.27;;;2.60;99.90;;;;;;5093102;28;20056;-80
2022/12/08 07:55:59;;;;;;;7.40;5.13;;;2.70;99.90;;;;;;5093430;28;20054;-82
2022/12/08 07:58:26;;;;;;;7.60;5.10;;;2.60;99.90;;;;;;5093345;28;20044;-79
2022/12/08 08:00:52;;;;;;;6.78;4.88;;;2.60;99.90;;;;;;5092180;28;20048;-84
2022/12/08 08:03:17;;;;;;;7.70;5.38;;;2.60;99.90;;;;;;5094046;28;20196;-78
2022/12/08 08:05:43;;;;;;;6.85;4.40;;;2.60;99.90;;;;;;5097000;28;20044;-77
2022/12/08 08:08:09;;;;;;;7.15;4.57;;;2.60;99.90;;;;;;5096949;28;20364;-74
2022/12/08 08:10:35;;;;;;;9.88;5.00;;;2.60;99.90;;;;;;5096969;28;20047;-76
2022/12/08 08:13:00;;;;;;;5.47;3.90;;;2.60;99.90;;;;;;5097304;28;20047;-74
2022/12/08 08:15:26;;;;;;;7.40;4.15;;;2.60;99.90;;;;;;5096749;28;20125;-75
2022/12/08 08:17:52;;;;;;;6.57;3.88;;;2.60;99.90;;;;;;5096840;28;20097;-75
2022/12/08 08:20:19;;;;;;;5.38;3.53;;;2.50;99.90;;;;;;5096749;28;20040;-75
2022/12/08 08:22:49;;;;;;;5.22;3.65;;;2.50;99.90;;;;;;5096294;28;20036;-75
2022/12/08 08:25:16;;;;;;;4.70;3.60;;;2.50;99.90;;;;;;5096687;28;20048;-75
2022/12/08 08:27:42;;;;;;;4.68;3.40;;;2.50;99.90;;;;;;5096313;28;20056;-76
2022/12/08 08:30:10;;;;;;;4.90;3.35;;;2.50;99.90;;;;;;5096468;28;20040;-76
2022/12/08 08:32:36;;;;;;;5.55;3.08;;;2.50;99.90;;;;;;5095714;28;20083;-77
2022/12/08 08:35:03;;;;;;;3.45;3.03;;;2.50;99.90;;;;;;5096462;28;20086;-75
2022/12/08 08:37:28;;;;;;;5.70;3.17;;;2.50;99.90;;;;;;5097181;28;20083;-76
2022/12/08 08:39:55;;;;;;;6.50;3.60;;;2.50;99.90;;;;;;5096367;28;20499;-73
2022/12/08 08:42:21;;;;;;;5.28;2.95;;;2.50;99.90;;;;;;5096560;28;20116;-75
2022/12/08 08:44:46;;;;;;;5.97;3.33;;;2.50;99.90;;;;;;5095664;28;20086;-75
2022/12/08 08:47:12;;;;;;;4.00;2.67;;;2.50;99.90;;;;;;5096342;28;20036;-75
2022/12/08 08:49:38;;;;;;;4.68;3.08;;;2.50;99.90;;;;;;5096238;28;20507;-76
2022/12/08 08:52:04;;;;;;;3.80;2.60;;;2.50;99.90;;;;;;5096648;28;20488;-76
2022/12/08 08:54:30;;;;;;;3.10;2.37;;;2.50;99.90;;;;;;5096123;28;20051;-75
2022/12/08 08:56:57;;;;;;;8.68;2.70;;;2.50;99.90;;;;;;5096432;28;20044;-75
2022/12/08 08:59:23;;;;;;;5.53;2.90;;;2.80;99.90;;;;;;5095815;28;20404;-76
2022/12/08 09:01:49;;;;;;;4.47;2.72;;;2.50;99.90;;;;;;5096119;28;20063;-76
2022/12/08 09:04:14;;;;;;;2.72;2.40;;;2.50;99.90;;;;;;5095854;28;20052;-76
2022/12/08 09:06:42;;;;;;;2.80;2.50;;;2.50;99.90;;;;;;5095823;28;20125;-76
2022/12/08 09:09:07;;;;;;;3.75;2.58;;;2.50;99.90;;;;;;5095855;28;20047;-76
2022/12/08 09:11:33;;;;;;;4.28;2.50;;;2.50;99.90;;;;;;5095750;28;20051;-76
2022/12/08 09:13:59;;;;;;;3.70;2.78;;;2.50;99.90;;;;;;5094471;28;20043;-76
2022/12/08 09:16:24;;;;;;;2.63;2.42;;;2.60;99.90;;;;;;5095650;28;20044;-76
2022/12/08 09:18:50;;;;;;;3.33;2.58;;;2.50;99.90;;;;;;5095636;28;20063;-76
2022/12/08 09:21:21;;;;;;;4.82;2.65;;;2.60;99.90;;;;;;5094344;28;20048;-75
2022/12/08 09:23:53;;;;;;;5.32;2.67;;;2.60;99.90;;;;;;5095556;28;20040;-75
2022/12/08 09:26:21;;;;;;;3.97;2.72;;;2.60;99.90;;;;;;5095456;28;20117;-76
2022/12/08 09:28:48;;;;;;;6.45;2.67;;;2.50;99.90;;;;;;5095434;28;20096;-75
2022/12/08 09:31:15;;;;;;;3.60;2.53;;;2.50;99.90;;;;;;5095372;28;20101;-76
2022/12/08 09:33:41;;;;;;;2.88;2.30;;;2.50;99.90;;;;;;5095304;28;20107;-75
2022/12/08 09:36:07;;;;;;;6.23;2.80;;;2.80;99.90;;;;;;5096084;28;20040;-75
2022/12/08 09:38:33;;;;;;;4.07;2.63;;;2.60;99.90;;;;;;5095725;28;20285;-76
2022/12/08 09:41:01;;;;;;;3.17;2.63;;;2.50;99.90;;;;;;5095139;28;20130;-75
2022/12/08 09:43:41;;;;;;;2.50;2.30;;;3.60;99.90;;;;;;5094750;28;20112;-76
2022/12/08 09:46:09;;;;;;;5.10;2.47;;;2.50;99.90;;;;;;5094052;28;20396;-76
2022/12/08 09:48:40;;;;;;;2.88;2.58;;;2.60;99.90;;;;;;5095025;28;20048;-76
2022/12/08 09:51:07;;;;;;;3.47;2.50;;;2.50;99.90;;;;;;5095434;28;20070;-74
2022/12/08 09:53:47;;;;;;;2.63;2.33;;;2.50;99.90;;;;;;5094935;28;20093;-74
2022/12/08 09:56:15;;;;;;;3.05;2.53;;;2.50;99.90;;;;;;5095000;28;20043;-76
2022/12/08 09:58:52;;;;;;;3.35;2.50;;;2.50;99.90;;;;;;5094734;28;20101;-74
2022/12/08 10:01:25;;;;;;;4.75;2.47;;;2.50;99.90;;;;;;5095359;28;20044;-71
2022/12/08 10:03:53;;;;;;;3.38;2.22;;;2.50;99.90;;;;;;5094900;28;20066;-75
2022/12/08 10:06:26;;;;;;;3.60;2.72;;;2.50;99.90;;;;;;5094745;28;20091;-74
2022/12/08 10:09:22;;;;;;;3.90;2.58;;;2.50;99.90;;;;;;5094818;28;20048;-74
2022/12/08 10:12:14;;;;;;;5.20;2.50;;;2.60;99.90;;;;;;5094658;28;20050;-75
2022/12/08 10:14:44;;;;;;;2.65;2.38;;;2.60;99.90;;;;;;5094288;28;20040;-76
2022/12/08 10:17:18;;;;;;;4.32;2.47;;;2.60;99.90;;;;;;5094692;28;20188;-74
2022/12/08 10:19:45;;;;;;;2.58;2.38;;;2.60;99.90;;;;;;5094455;28;20051;-75
2022/12/08 10:22:22;;;;;;;3.25;2.35;;;2.60;99.90;;;;;;5094849;28;20083;-74
2022/12/08 10:24:58;;;;;;;3.20;2.38;;;2.60;99.90;;;;;;5094439;28;20040;-74
2022/12/08 10:27:24;;;;;;;3.97;2.45;;;2.60;99.90;;;;;;5094380;28;20056;-75
2022/12/08 10:29:50;;;;;;;2.85;2.50;;;2.60;99.90;;;;;;5094352;28;20062;-74
2022/12/08 10:32:21;;;;;;;2.45;2.10;;;2.60;99.90;;;;;;5094128;28;20478;-76
2022/12/08 10:35:21;;;;;;;4.40;2.60;;;2.60;99.90;;;;;;5093049;28;20051;-75
2022/12/08 10:37:58;;;;;;;2.60;2.30;;;2.60;99.90;;;;;;5049621;28;20067;-74
2022/12/08 10:40:27;;;;;;;4.28;2.58;;;2.60;99.90;;;;;;5094238;28;20083;-76
2022/12/08 10:42:57;;;;;;;6.68;2.72;;;2.60;99.90;;;;;;5093991;28;20303;-75
2022/12/08 10:45:29;;;;;;;3.88;2.40;;;2.60;99.90;;;;;;5094485;28;20044;-74
2022/12/08 10:47:58;;;;;;;4.20;2.70;;;2.60;99.90;;;;;;5092870;28;20086;-74
2022/12/08 10:50:32;;;;;;;5.80;2.58;;;2.60;99.90;;;;;;5093992;28;20094;-73
2022/12/08 10:53:20;;;;;;;3.63;2.88;;;2.60;99.90;;;;;;5076240;28;20086;-74
2022/12/08 10:56:02;;;;;;;6.00;3.40;;;2.70;99.90;;;;;;5093353;28;20051;-74
2022/12/08 10:58:39;;;;;;;4.70;3.20;;;2.50;99.90;;;;;;5093947;28;20775;-73
2022/12/08 11:01:31;;;;;;;5.25;3.50;;;2.50;99.90;;;;;;5093944;28;20052;-73
2022/12/08 11:04:00;;;;;;;3.60;3.20;;;2.70;99.90;;;;;;5094273;28;20040;-73
2022/12/08 11:06:35;;;;;;;9.30;4.18;;;2.60;99.90;;;;;;5093807;28;20036;-73
2022/12/08 11:09:05;;;;;;;5.10;3.90;;;2.50;99.90;;;;;;5092761;28;20396;-78
2022/12/08 11:11:56;;;;;;;4.30;3.67;;;2.50;99.90;;;;;;5093893;28;20044;-73
2022/12/08 11:14:26;;;;;;;7.22;3.85;;;2.50;99.90;;;;;;5094246;28;20123;-73
2022/12/08 11:17:20;;;;;;;5.57;3.80;;;2.50;99.90;;;;;;5094089;28;20052;-73
2022/12/08 11:20:18;;;;;;;7.05;4.10;;;2.50;99.90;;;;;;5087552;28;20069;-73
2022/12/08 11:22:50;;;;;;;4.78;4.25;;;2.50;99.90;;;;;;5093649;28;20076;-73
2022/12/08 11:25:24;;;;;;;6.07;3.80;;;2.60;99.90;;;;;;5092560;28;20407;-74
2022/12/08 11:27:59;;;;;;;9.77;3.47;;;2.60;99.90;;;;;;5093534;28;20059;-75
2022/12/08 11:30:29;;;;;;;7.22;4.72;;;2.60;99.90;;;;;;5093674;28;20139;-78
2022/12/08 11:33:16;;;;;;;8.48;4.68;;;2.60;99.90;;;;;;5093755;28;20063;-78
2022/12/08 11:35:50;;;;;;;5.43;4.10;;;2.60;99.90;;;;;;5093912;28;20083;-76
2022/12/08 11:38:22;;;;;;;7.38;4.28;;;2.60;99.90;;;;;;5095541;28;20126;-81
2022/12/08 11:40:54;;;;;;;7.10;4.82;;;2.70;99.90;;;;;;5095540;28;20504;-74
2022/12/08 11:43:47;;;;;;;7.18;4.63;;;2.70;99.90;;;;;;5096965;28;20043;-73
2022/12/08 11:46:23;;;;;;;6.15;4.40;;;2.70;99.90;;;;;;5097013;28;20036;-75
2022/12/08 11:48:52;;;;;;;7.50;4.28;;;2.70;99.90;;;;;;5097446;28;20395;-75
2022/12/08 11:51:41;;;;;;;5.68;4.15;;;2.70;99.90;;;;;;5097302;28;20048;-74
2022/12/08 11:54:23;;;;;;;5.40;4.43;;;2.70;99.90;;;;;;5097207;28;20036;-74
2022/12/08 11:56:56;;;;;;;8.05;4.38;;;2.70;99.90;;;;;;5096830;28;20040;-73
2022/12/08 11:59:25;;;;;;;5.60;4.13;;;2.70;99.90;;;;;;5096914;28;20044;-72
2022/12/08 12:01:51;;;;;;;6.10;3.90;;;2.60;99.90;;;;;;5096798;28;20483;-75
2022/12/08 12:04:31;;;;;;;6.88;4.47;;;2.60;99.90;;;;;;5096404;28;20047;-76
2022/12/08 12:07:41;;;;;;;6.88;4.47;;;2.50;99.90;;;;;;5096930;28;20044;-76
2022/12/08 12:10:19;;;;;;;5.72;4.30;;;2.50;99.90;;;;;;5080780;28;20051;-75
2022/12/08 12:13:06;;;;;;;11.63;4.72;;;2.40;99.90;;;;;;5096343;28;20043;-75
2022/12/08 12:16:04;;;;;;;9.40;4.45;;;2.40;99.90;;;;;;5096390;28;20506;-75
2022/12/08 12:18:51;;;;;;;8.90;4.90;;;2.40;99.90;;;;;;5096437;28;20052;-78
2022/12/08 12:21:21;;;;;;;8.57;4.93;;;2.40;99.90;;;;;;5096712;28;20051;-75
2022/12/08 12:23:52;;;;;;;7.50;5.28;;;2.30;99.90;;;;;;5096684;28;20040;-75
2022/12/08 12:26:27;;;;;;;6.80;5.20;;;2.30;99.90;;;;;;5096772;28;20056;-75
2022/12/08 12:29:02;;;;;;;8.20;5.07;;;2.40;99.90;;;;;;5096317;28;20116;-75
2022/12/08 12:31:32;;;;;;;10.75;5.55;;;2.40;99.90;;;;;;5095977;28;20044;-75
2022/12/08 12:34:16;;;;;;;7.35;5.28;;;2.40;99.90;;;;;;5096381;28;20043;-73
2022/12/08 12:37:16;;;;;;;6.63;4.55;;;2.40;99.90;;;;;;5096410;28;20044;-75
2022/12/08 12:39:50;;;;;;;7.13;5.22;;;2.40;99.90;;;;;;5093002;28;20059;-75
2022/12/08 12:42:54;;;;;;;8.57;4.93;;;2.40;99.90;;;;;;5096113;28;20054;-74
2022/12/08 12:45:20;;;;;;;11.88;5.60;;;2.50;99.90;;;;;;5033476;28;20053;-74
2022/12/08 12:48:11;;;;;;;8.82;5.45;;;3.40;99.90;;;;;;5033629;28;20418;-73
2022/12/08 12:50:42;;;;;;;9.93;5.50;;;2.70;99.90;;;;;;5073642;28;20059;-74
2022/12/08 12:53:19;;;;;;;8.75;5.40;;;2.70;99.90;;;;;;5096194;28;20051;-75
2022/12/08 12:55:45;;;;;;;10.15;5.38;;;2.80;99.90;;;;;;5096201;28;20178;-74
2022/12/08 12:58:28;;;;;;;8.10;6.05;;;2.90;99.90;;;;;;5096298;28;20087;-76
2022/12/08 13:01:12;;;;;;;7.60;4.93;;;3.00;99.90;;;;;;5095767;28;20582;-75
2022/12/08 13:03:50;;;;;;;10.73;5.85;;;3.00;99.90;;;;;;5095763;28;20085;-75
2022/12/08 13:06:31;;;;;;;8.05;5.25;;;3.10;99.90;;;;;;5095543;28;20044;-75
2022/12/08 13:08:58;;;;;;;7.43;5.30;;;3.10;99.90;;;;;;5095613;28;20054;-75
2022/12/08 13:11:24;;;;;;;8.60;5.97;;;3.20;99.90;;;;;;5095585;28;20173;-76
2022/12/08 13:14:00;;;;;;;8.50;5.45;;;3.20;99.90;;;;;;5095164;28;20048;-74
2022/12/08 13:16:30;;;;;;;12.48;6.18;;;3.30;99.90;;;;;;5095411;28;20514;-76
2022/12/08 13:19:02;;;;;;;7.75;5.40;;;3.30;99.90;;;;;;5095564;28;20141;-75